createdAt,value
2018-06-09T00:01:57.224Z,14.90
2018-06-09T00:04:26.287Z,14.90
2018-06-09T00:06:55.705Z,14.90
2018-06-09T00:09:24.751Z,14.90
2018-06-09T00:11:53.783Z,14.90
2018-06-09T00:14:22.827Z,14.90
2018-06-09T00:16:51.954Z,14.90
2018-06-09T00:19:21.001Z,14.90
2018-06-09T00:21:50.063Z,15.00
2018-06-09T00:24:19.116Z,14.90
2018-06-09T00:26:48.143Z,14.90
2018-06-09T00:29:17.212Z,14.80
2018-06-09T00:31:46.298Z,14.80
2018-06-09T00:34:15.342Z,14.70
2018-06-09T00:36:44.363Z,14.70
2018-06-09T00:39:13.412Z,14.60
2018-06-09T00:41:42.651Z,14.60
2018-06-09T00:44:11.699Z,14.50
2018-06-09T00:46:40.726Z,14.50
2018-06-09T00:49:09.881Z,14.40
2018-06-09T00:51:38.927Z,14.40
2018-06-09T00:54:07.979Z,14.30
2018-06-09T00:56:46.751Z,14.20
2018-06-09T00:59:15.815Z,14.20
2018-06-09T01:01:44.853Z,14.20
2018-06-09T01:04:13.907Z,14.10
2018-06-09T01:06:42.941Z,14.00
2018-06-09T01:09:11.991Z,13.90
2018-06-09T01:11:41.120Z,13.90
2018-06-09T01:14:10.187Z,13.90
2018-06-09T01:16:39.207Z,13.80
2018-06-09T01:19:08.272Z,13.80
2018-06-09T01:21:37.331Z,13.80
2018-06-09T01:24:06.412Z,13.70
2018-06-09T01:26:35.461Z,13.70
2018-06-09T01:29:04.496Z,13.70
2018-06-09T01:31:33.548Z,13.70
2018-06-09T01:34:02.570Z,13.70
2018-06-09T01:36:31.633Z,13.70
2018-06-09T01:39:00.652Z,13.60
2018-06-09T01:41:29.695Z,13.60
2018-06-09T01:43:58.721Z,13.60
2018-06-09T01:46:27.763Z,13.60
2018-06-09T01:48:56.792Z,13.70
2018-06-09T01:51:25.836Z,13.70
2018-06-09T01:53:54.857Z,13.70
2018-06-09T01:56:23.932Z,13.70
2018-06-09T01:58:52.940Z,13.70
2018-06-09T02:01:21.993Z,13.70
2018-06-09T02:03:51.016Z,13.70
2018-06-09T02:06:20.060Z,13.70
2018-06-09T02:08:49.171Z,13.60
2018-06-09T02:13:46.874Z,13.50
2018-06-09T02:16:15.919Z,13.40
2018-06-09T02:18:44.951Z,13.40
2018-06-09T02:21:14.008Z,13.40
2018-06-09T02:23:43.056Z,13.40
2018-06-09T02:26:12.103Z,13.30
2018-06-09T02:28:41.131Z,13.30
2018-06-09T02:31:10.203Z,13.20
2018-06-09T02:33:39.222Z,13.20
2018-06-09T02:36:08.316Z,13.10
2018-06-09T02:38:37.344Z,13.10
2018-06-09T02:41:06.444Z,13.10
2018-06-09T02:43:35.472Z,13.00
2018-06-09T02:46:04.517Z,13.00
2018-06-09T02:48:33.544Z,12.90
2018-06-09T02:51:02.597Z,12.90
2018-06-09T02:53:31.620Z,13.00
2018-06-09T02:56:00.664Z,13.00
2018-06-09T03:00:58.373Z,13.20
2018-06-09T03:03:27.397Z,13.30
2018-06-09T03:05:56.457Z,13.40
2018-06-09T03:08:25.481Z,13.40
2018-06-09T03:10:54.535Z,13.50
2018-06-09T03:13:23.570Z,13.60
2018-06-09T03:15:52.926Z,13.60
2018-06-09T03:18:21.948Z,13.60
2018-06-09T03:20:51.016Z,13.50
2018-06-09T03:23:20.061Z,13.40
2018-06-09T03:25:49.114Z,13.40
2018-06-09T03:28:18.158Z,13.40
2018-06-09T03:30:47.210Z,13.40
2018-06-09T03:33:16.231Z,13.30
2018-06-09T03:35:45.279Z,13.30
2018-06-09T03:38:14.303Z,13.40
2018-06-09T03:40:43.359Z,13.40
2018-06-09T03:43:12.442Z,13.40
2018-06-09T03:45:41.517Z,13.40
2018-06-09T03:48:10.563Z,13.40
2018-06-09T03:50:39.593Z,13.40
2018-06-09T03:53:08.651Z,13.50
2018-06-09T03:55:37.696Z,13.50
2018-06-09T03:58:06.762Z,13.60
2018-06-09T04:00:35.787Z,13.70
2018-06-09T04:03:04.873Z,13.80
2018-06-09T04:05:33.903Z,13.80
2018-06-09T04:08:02.943Z,13.90
2018-06-09T04:10:31.984Z,14.00
2018-06-09T04:13:01.721Z,14.00
2018-06-09T04:15:30.757Z,14.10
2018-06-09T04:17:59.795Z,14.20
2018-06-09T04:20:28.824Z,14.30
2018-06-09T04:22:57.908Z,14.40
2018-06-09T04:25:26.931Z,14.60
2018-06-09T04:27:55.972Z,14.70
2018-06-09T04:30:25.009Z,14.90
2018-06-09T04:32:54.058Z,15.00
2018-06-09T04:35:23.092Z,15.10
2018-06-09T04:37:52.154Z,15.20
2018-06-09T04:40:21.175Z,15.30
2018-06-09T04:42:50.215Z,15.50
2018-06-09T04:45:19.244Z,15.60
2018-06-09T04:47:48.291Z,15.70
2018-06-09T04:50:17.315Z,15.80
2018-06-09T04:52:46.372Z,16.00
2018-06-09T04:55:15.394Z,16.10
2018-06-09T04:57:44.439Z,16.20
2018-06-09T05:00:13.468Z,16.20
2018-06-09T05:02:42.540Z,16.40
2018-06-09T05:05:11.591Z,16.40
2018-06-09T05:07:40.648Z,16.50
2018-06-09T05:10:09.982Z,16.60
2018-06-09T05:12:39.025Z,16.70
2018-06-09T05:15:08.052Z,16.70
2018-06-09T05:17:37.092Z,16.80
2018-06-09T05:20:06.124Z,16.90
2018-06-09T05:22:35.216Z,17.00
2018-06-09T05:25:04.260Z,17.10
2018-06-09T05:27:33.364Z,17.20
2018-06-09T05:30:02.400Z,17.30
2018-06-09T05:32:31.452Z,17.40
2018-06-09T05:35:00.507Z,17.50
2018-06-09T05:37:29.574Z,17.60
2018-06-09T05:39:58.611Z,17.70
2018-06-09T05:42:27.704Z,17.80
2018-06-09T05:44:56.736Z,17.90
2018-06-09T05:47:25.791Z,17.90
2018-06-09T05:52:23.499Z,18.10
2018-06-09T05:54:52.535Z,18.20
2018-06-09T05:57:21.744Z,18.30
2018-06-09T05:59:50.778Z,18.40
2018-06-09T06:02:19.916Z,18.50
2018-06-09T06:04:49.147Z,18.60
2018-06-09T06:07:18.226Z,18.70
2018-06-09T06:09:47.256Z,18.70
2018-06-09T06:12:16.327Z,18.90
2018-06-09T06:14:45.360Z,19.00
2018-06-09T06:17:14.407Z,19.10
2018-06-09T06:19:43.526Z,19.20
2018-06-09T06:22:12.578Z,19.30
2018-06-09T06:24:41.637Z,19.40
2018-06-09T06:27:10.656Z,19.50
2018-06-09T06:29:39.910Z,19.60
2018-06-09T06:32:09.003Z,19.80
2018-06-09T06:34:38.056Z,19.90
2018-06-09T06:37:07.096Z,20.10
2018-06-09T06:39:36.156Z,20.20
2018-06-09T06:42:05.229Z,20.40
2018-06-09T06:44:34.392Z,20.50
2018-06-09T06:47:03.507Z,20.60
2018-06-09T06:49:32.585Z,20.80
2018-06-09T06:52:02.311Z,20.90
2018-06-09T06:54:31.365Z,21.00
2018-06-09T06:59:31.503Z,21.30
2018-06-09T07:02:01.735Z,21.40
2018-06-09T07:04:32.523Z,21.60
2018-06-09T07:09:33.989Z,21.90
2018-06-09T07:12:04.430Z,22.00
2018-06-09T07:14:34.959Z,22.20
2018-06-09T07:17:04.009Z,22.30
2018-06-09T07:19:33.079Z,22.40
2018-06-09T07:22:02.136Z,22.70
2018-06-09T07:24:31.193Z,22.90
2018-06-09T07:27:00.227Z,23.10
2018-06-09T07:29:29.609Z,23.30
2018-06-09T07:31:58.696Z,23.40
2018-06-09T07:34:28.355Z,23.40
2018-06-09T07:36:57.385Z,23.50
2018-06-09T07:39:26.596Z,23.70
2018-06-09T07:41:55.630Z,23.80
2018-06-09T07:44:24.688Z,23.90
2018-06-09T07:46:53.783Z,23.80
2018-06-09T07:49:23.049Z,23.80
2018-06-09T07:51:52.090Z,24.10
2018-06-09T07:54:21.131Z,24.30
2018-06-09T07:56:50.194Z,24.50
2018-06-09T07:59:19.305Z,24.60
2018-06-09T08:01:48.382Z,24.70
2018-06-09T08:04:18.071Z,24.90
2018-06-09T08:06:47.351Z,25.10
2018-06-09T08:09:16.642Z,25.20
2018-06-09T08:11:46.448Z,25.30
2018-06-09T08:14:15.680Z,25.40
2018-06-09T08:16:44.752Z,25.40
2018-06-09T08:19:13.911Z,25.40
2018-06-09T08:21:42.969Z,25.50
2018-06-09T08:24:12.063Z,25.50
2018-06-09T08:26:41.162Z,25.60
2018-06-09T08:29:10.373Z,25.70
2018-06-09T08:31:39.436Z,25.80
2018-06-09T08:34:09.259Z,25.90
2018-06-09T08:36:38.310Z,26.00
2018-06-09T08:39:07.874Z,25.90
2018-06-09T08:41:37.128Z,26.00
2018-06-09T08:46:34.992Z,25.90
2018-06-09T08:49:04.283Z,25.90
2018-06-09T08:51:33.425Z,26.10
2018-06-09T08:54:02.515Z,26.20
2018-06-09T08:56:31.611Z,26.40
2018-06-09T08:59:00.887Z,26.40
2018-06-09T09:01:29.958Z,26.40
2018-06-09T09:03:58.999Z,26.60
2018-06-09T09:06:28.035Z,26.80
2018-06-09T09:08:57.062Z,26.90
2018-06-09T09:11:26.140Z,26.90
2018-06-09T09:13:55.190Z,26.90
2018-06-09T09:16:24.234Z,26.90
2018-06-09T09:18:53.269Z,27.00
2018-06-09T09:21:22.353Z,27.00
2018-06-09T09:23:51.410Z,27.10
2018-06-09T09:26:20.486Z,27.10
2018-06-09T09:28:49.527Z,27.30
2018-06-09T09:33:47.215Z,27.30
2018-06-09T09:36:16.287Z,27.40
2018-06-09T09:38:45.343Z,27.50
2018-06-09T09:41:14.499Z,27.60
2018-06-09T09:43:43.574Z,27.50
2018-06-09T09:46:12.644Z,27.30
2018-06-09T09:48:41.773Z,27.40
2018-06-09T09:53:39.553Z,27.60
2018-06-09T09:56:08.612Z,27.60
2018-06-09T09:58:37.663Z,27.60
2018-06-09T10:01:06.810Z,27.70
2018-06-09T10:03:35.821Z,27.70
2018-06-09T10:06:04.900Z,27.80
2018-06-09T10:08:33.944Z,27.80
2018-06-09T10:11:03.046Z,27.90
2018-06-09T10:13:32.133Z,28.00
2018-06-09T10:16:01.194Z,28.10
2018-06-09T10:18:30.293Z,28.10
2018-06-09T10:20:59.492Z,28.00
2018-06-09T10:23:28.638Z,28.00
2018-06-09T10:25:57.869Z,28.00
2018-06-09T10:28:27.052Z,28.00
2018-06-09T10:30:56.227Z,28.10
2018-06-09T10:33:25.300Z,28.20
2018-06-09T10:35:54.387Z,28.20
2018-06-09T10:38:23.459Z,28.40
2018-06-09T10:40:52.551Z,28.50
2018-06-09T10:43:21.717Z,28.50
2018-06-09T10:45:50.829Z,28.50
2018-06-09T10:48:19.877Z,28.60
2018-06-09T10:50:48.912Z,28.50
2018-06-09T10:53:18.016Z,28.60
2018-06-09T10:55:47.042Z,28.60
2018-06-09T11:03:13.481Z,28.60
2018-06-09T11:05:42.568Z,28.50
2018-06-09T11:08:11.619Z,28.50
2018-06-09T11:10:40.639Z,28.70
2018-06-09T11:13:09.675Z,28.70
2018-06-09T11:15:38.706Z,28.80
2018-06-09T11:18:07.749Z,28.70
2018-06-09T11:20:36.778Z,28.60
2018-06-09T11:23:05.884Z,28.60
2018-06-09T11:25:34.928Z,28.60
2018-06-09T11:28:04.023Z,28.70
2018-06-09T11:30:33.031Z,28.70
2018-06-09T11:33:02.086Z,28.80
2018-06-09T11:35:31.099Z,28.80
2018-06-09T11:38:00.183Z,28.90
2018-06-09T11:40:29.471Z,29.10
2018-06-09T11:42:58.536Z,29.10
2018-06-09T11:45:27.567Z,29.20
2018-06-09T11:47:56.649Z,29.30
2018-06-09T11:50:25.752Z,29.30
2018-06-09T11:52:54.806Z,29.30
2018-06-09T11:55:23.835Z,29.20
2018-06-09T11:57:52.874Z,29.20
2018-06-09T12:00:21.923Z,29.30
2018-06-09T12:02:50.967Z,29.30
2018-06-09T12:05:20.030Z,29.30
2018-06-09T12:07:49.079Z,29.40
2018-06-09T12:10:18.101Z,29.40
2018-06-09T12:12:47.186Z,29.30
2018-06-09T12:15:16.211Z,29.40
2018-06-09T12:17:45.360Z,29.30
2018-06-09T12:22:43.108Z,29.50
2018-06-09T12:25:12.153Z,29.40
2018-06-09T12:27:41.184Z,29.30
2018-06-09T12:30:10.238Z,29.40
2018-06-09T12:32:39.256Z,29.50
2018-06-09T12:35:08.320Z,29.50
2018-06-09T12:37:37.373Z,29.50
2018-06-09T12:40:06.610Z,29.50
2018-06-09T12:42:35.637Z,29.50
2018-06-09T12:45:04.732Z,29.50
2018-06-09T12:47:33.895Z,29.40
2018-06-09T12:55:00.384Z,29.50
2018-06-09T12:57:29.412Z,29.50
2018-06-09T12:59:58.469Z,29.50
2018-06-09T13:02:27.495Z,29.50
2018-06-09T13:04:56.567Z,29.50
2018-06-09T13:07:25.572Z,29.50
2018-06-09T13:09:54.615Z,29.50
2018-06-09T13:12:23.652Z,29.60
2018-06-09T13:14:52.695Z,29.60
2018-06-09T13:17:21.751Z,29.60
2018-06-09T13:19:50.841Z,29.60
2018-06-09T13:22:19.891Z,29.50
2018-06-09T13:24:48.960Z,29.50
2018-06-09T13:27:17.975Z,29.50
2018-06-09T13:29:47.027Z,29.50
2018-06-09T13:32:16.048Z,29.60
2018-06-09T13:34:45.104Z,29.60
2018-06-09T13:37:14.132Z,29.60
2018-06-09T13:39:43.366Z,29.50
2018-06-09T13:42:12.379Z,29.50
2018-06-09T13:44:41.437Z,29.50
2018-06-09T13:47:10.469Z,29.50
2018-06-09T13:49:39.512Z,29.60
2018-06-09T13:52:08.546Z,29.60
2018-06-09T13:54:37.643Z,29.70
2018-06-09T13:57:06.636Z,29.70
2018-06-09T13:59:35.682Z,29.60
2018-06-09T14:02:04.782Z,29.60
2018-06-09T14:04:33.879Z,29.60
2018-06-09T14:07:02.910Z,29.70
2018-06-09T14:09:31.948Z,29.80
2018-06-09T14:12:00.964Z,29.80
2018-06-09T14:14:30.019Z,29.80
2018-06-09T14:16:59.069Z,29.80
2018-06-09T14:19:28.155Z,29.90
2018-06-09T14:24:26.150Z,29.90
2018-06-09T14:29:23.919Z,30.00
2018-06-09T14:31:52.953Z,30.00
2018-06-09T14:34:22.087Z,30.00
2018-06-09T14:36:51.115Z,29.90
2018-06-09T14:41:48.860Z,29.90
2018-06-09T14:44:18.105Z,29.80
2018-06-09T14:46:47.159Z,29.90
2018-06-09T14:49:16.245Z,30.00
2018-06-09T14:51:45.337Z,29.90
2018-06-09T14:54:14.349Z,29.90
2018-06-09T14:56:43.681Z,29.90
2018-06-09T15:01:41.675Z,30.00
2018-06-09T15:04:10.713Z,30.00
2018-06-09T15:06:39.773Z,30.00
2018-06-09T15:09:09.572Z,30.00
2018-06-09T15:11:38.622Z,30.00
2018-06-09T15:14:07.644Z,29.90
2018-06-09T15:16:36.684Z,29.90
2018-06-09T15:19:05.719Z,30.00
2018-06-09T15:21:34.807Z,30.00
2018-06-09T15:24:03.923Z,30.10
2018-06-09T15:26:33.125Z,30.10
2018-06-09T15:31:30.797Z,30.10
2018-06-09T15:38:57.176Z,29.90
2018-06-09T15:41:26.211Z,29.80
2018-06-09T15:43:55.293Z,29.80
2018-06-09T15:46:24.343Z,29.60
2018-06-09T15:48:53.371Z,29.60
2018-06-09T15:51:22.416Z,29.60
2018-06-09T15:53:51.430Z,29.60
2018-06-09T15:56:20.472Z,29.70
2018-06-09T15:58:49.494Z,29.80
2018-06-09T16:01:18.523Z,29.90
2018-06-09T16:03:47.540Z,30.10
2018-06-09T16:06:16.715Z,30.20
2018-06-09T16:08:45.755Z,30.30
2018-06-09T16:11:14.807Z,30.20
2018-06-09T16:13:43.832Z,30.20
2018-06-09T16:16:12.877Z,30.20
2018-06-09T16:18:41.956Z,30.00
2018-06-09T16:21:10.993Z,30.00
2018-06-09T16:23:40.032Z,30.00
2018-06-09T16:26:09.274Z,29.90
2018-06-09T16:31:07.492Z,29.80
2018-06-09T16:33:36.526Z,29.80
2018-06-09T16:36:05.592Z,29.70
2018-06-09T16:38:34.667Z,29.60
2018-06-09T16:41:03.702Z,29.50
2018-06-09T16:43:32.714Z,29.50
2018-06-09T16:46:01.773Z,29.40
2018-06-09T16:48:30.812Z,29.30
2018-06-09T16:53:28.499Z,28.90
2018-06-09T16:58:26.198Z,28.60
2018-06-09T17:00:55.252Z,28.40
2018-06-09T17:03:24.354Z,28.30
2018-06-09T17:05:53.385Z,28.20
2018-06-09T17:08:22.443Z,28.10
2018-06-09T17:13:20.142Z,27.80
2018-06-09T17:18:17.842Z,27.50
2018-06-09T17:20:46.892Z,27.50
2018-06-09T17:23:15.956Z,27.30
2018-06-09T17:25:44.981Z,27.20
2018-06-09T17:28:20.682Z,27.00
2018-06-09T17:30:49.704Z,27.00
2018-06-09T17:33:25.463Z,26.90
2018-06-09T17:35:54.905Z,26.80
2018-06-09T17:40:52.584Z,26.50
2018-06-09T17:43:21.627Z,26.50
2018-06-09T17:45:50.644Z,26.40
2018-06-09T17:48:19.732Z,26.30
2018-06-09T17:50:48.781Z,26.20
2018-06-09T17:53:17.834Z,26.10
2018-06-09T17:55:46.853Z,26.00
2018-06-09T17:58:15.887Z,26.00
2018-06-09T18:00:44.920Z,25.90
2018-06-09T18:03:13.971Z,25.80
2018-06-09T18:05:42.992Z,25.70
2018-06-09T18:08:12.071Z,25.60
2018-06-09T18:10:41.105Z,25.60
2018-06-09T18:13:10.183Z,25.40
2018-06-09T18:15:39.220Z,25.40
2018-06-09T18:18:08.283Z,25.30
2018-06-09T18:20:37.296Z,25.20
2018-06-09T18:23:06.442Z,25.10
2018-06-09T18:25:35.488Z,25.00
2018-06-09T18:28:04.870Z,24.90
2018-06-09T18:30:33.961Z,24.80
2018-06-09T18:35:31.667Z,24.60
2018-06-09T18:38:00.720Z,24.50
2018-06-09T18:40:29.769Z,24.50
2018-06-09T18:42:58.853Z,24.30
2018-06-09T18:45:27.913Z,24.20
2018-06-09T18:47:56.993Z,24.10
2018-06-09T18:50:26.024Z,23.90
2018-06-09T18:52:55.171Z,23.80
2018-06-09T18:55:24.240Z,23.70
2018-06-09T18:57:53.427Z,23.60
2018-06-09T19:00:22.493Z,23.50
2018-06-09T19:07:48.906Z,23.10
2018-06-09T19:10:18.066Z,23.00
2018-06-09T19:12:47.223Z,22.90
2018-06-09T19:15:16.314Z,22.70
2018-06-09T19:17:45.501Z,22.50
2018-06-09T19:20:14.618Z,22.40
2018-06-09T19:22:43.717Z,22.30
2018-06-09T19:25:12.793Z,22.00
2018-06-09T19:27:42.763Z,21.80
2018-06-09T19:30:11.821Z,21.70
2018-06-09T19:32:40.981Z,21.60
2018-06-09T19:35:10.184Z,21.40
2018-06-09T19:37:39.359Z,21.30
2018-06-09T19:40:08.486Z,21.20
2018-06-09T19:42:37.603Z,21.20
2018-06-09T19:45:06.739Z,21.10
2018-06-09T19:47:35.938Z,21.10
2018-06-09T19:50:05.020Z,20.90
2018-06-09T19:52:34.202Z,20.70
2018-06-09T19:55:03.288Z,20.50
2018-06-09T19:57:32.422Z,20.40
2018-06-09T20:02:30.177Z,20.30
2018-06-09T20:04:59.286Z,20.30
2018-06-09T20:07:28.557Z,20.20
2018-06-09T20:09:57.736Z,20.10
2018-06-09T20:12:26.843Z,20.00
2018-06-09T20:14:55.920Z,19.90
2018-06-09T20:17:24.989Z,19.80
2018-06-09T20:19:54.021Z,19.80
2018-06-09T20:22:23.096Z,19.70
2018-06-09T20:24:52.160Z,19.70
2018-06-09T20:27:21.201Z,19.60
2018-06-09T20:29:50.236Z,19.50
2018-06-09T20:32:19.290Z,19.50
2018-06-09T20:34:48.363Z,19.30
2018-06-09T20:37:17.449Z,19.30
2018-06-09T20:39:46.472Z,19.20
2018-06-09T20:42:15.607Z,19.10
2018-06-09T20:44:44.648Z,19.00
2018-06-09T20:47:13.704Z,19.00
2018-06-09T20:49:42.838Z,18.90
2018-06-09T20:52:11.867Z,18.80
2018-06-09T20:54:40.940Z,18.70
2018-06-09T20:57:09.972Z,18.60
2018-06-09T20:59:39.093Z,18.60
2018-06-09T21:04:36.790Z,18.60
2018-06-09T21:07:05.863Z,18.60
2018-06-09T21:09:34.916Z,18.60
2018-06-09T21:12:03.962Z,18.60
2018-06-09T21:14:33.020Z,18.60
2018-06-09T21:17:02.164Z,18.60
2018-06-09T21:19:31.332Z,18.60
2018-06-09T21:24:29.097Z,18.70
2018-06-09T21:27:03.391Z,18.80
2018-06-09T21:29:38.520Z,18.80
2018-06-09T21:32:09.286Z,18.80
2018-06-09T21:34:55.155Z,18.90
2018-06-09T21:37:29.593Z,18.90
2018-06-09T21:40:01.547Z,18.90
2018-06-09T21:42:35.230Z,18.90
2018-06-09T21:45:08.205Z,18.90
2018-06-09T21:47:37.279Z,18.80
2018-06-09T21:50:06.536Z,18.80
2018-06-09T21:52:35.606Z,18.70
2018-06-09T21:55:04.745Z,18.60
2018-06-09T21:57:33.779Z,18.50
2018-06-09T22:00:03.129Z,18.50
2018-06-09T22:02:32.351Z,18.40
2018-06-09T22:05:01.464Z,18.40
2018-06-09T22:07:30.570Z,18.40
2018-06-09T22:09:59.648Z,18.40
2018-06-09T22:12:28.749Z,18.40
2018-06-09T22:14:57.825Z,18.50
2018-06-09T22:17:26.875Z,18.50
2018-06-09T22:19:55.964Z,18.50
2018-06-09T22:22:25.028Z,18.50
2018-06-09T22:24:54.099Z,18.50
2018-06-09T22:27:23.169Z,18.50
2018-06-09T22:29:52.230Z,18.50
2018-06-09T22:32:21.276Z,18.50
2018-06-09T22:37:19.020Z,18.40
2018-06-09T22:39:48.115Z,18.30
2018-06-09T22:42:17.158Z,18.30
2018-06-09T22:44:46.232Z,18.30
2018-06-09T22:47:15.279Z,18.20
2018-06-09T22:49:44.319Z,18.20
2018-06-09T22:52:13.392Z,18.20
2018-06-09T22:54:42.422Z,18.20
2018-06-09T22:57:11.473Z,18.20
2018-06-09T22:59:40.508Z,18.20
2018-06-09T23:02:09.572Z,18.20
2018-06-09T23:04:38.595Z,18.20
2018-06-09T23:07:07.676Z,18.20
2018-06-09T23:09:36.703Z,18.10
2018-06-09T23:12:05.764Z,18.10
2018-06-09T23:14:34.794Z,18.00
2018-06-09T23:17:04.065Z,17.90
2018-06-09T23:19:33.091Z,17.90
2018-06-09T23:22:02.177Z,17.80
2018-06-09T23:24:31.208Z,17.70
2018-06-09T23:27:00.281Z,17.70
2018-06-09T23:29:29.314Z,17.60
2018-06-09T23:31:58.388Z,17.50
2018-06-09T23:34:27.424Z,17.50
2018-06-09T23:36:56.504Z,17.50
2018-06-09T23:39:25.528Z,17.50
2018-06-09T23:41:54.601Z,17.40
2018-06-09T23:44:23.636Z,17.40
2018-06-09T23:46:52.725Z,17.30
2018-06-09T23:49:21.752Z,17.30
2018-06-09T23:51:50.817Z,17.30
2018-06-09T23:54:19.852Z,17.30
2018-06-09T23:56:48.904Z,17.20
2018-06-09T23:59:17.937Z,17.10
